Time;durP1;ratioP1;P1;durP2;ratioP2;P2;SDS_P1;SDS_P2;PMS_P1;PMS_P2;Temp;Humidity;BMP_temperature;BMP_pressure;BME280_temperature;BME280_humidity;BME280_pressure;Samples;Min_cycle;Max_cycle;Signal;HPM_P1;HPM_P2
2022/09/06 00:00:55;;;;;;;15.40;4.28;;;;;;;8.42;100.00;99771.75;2227924;80;21495;-57
2022/09/06 00:03:56;;;;;;;16.35;4.03;;;;;;;8.37;100.00;99767.16;2216953;79;21016;-57
2022/09/06 00:06:58;;;;;;;21.25;4.72;;;;;;;8.49;100.00;99769.34;2222481;79;21569;-57
2022/09/06 00:10:00;;;;;;;16.25;3.98;;;;;;;8.41;100.00;99774.83;2224340;80;20979;-57
2022/09/06 00:13:01;;;;;;;17.42;4.67;;;;;;;8.34;100.00;99772.05;2225907;79;21494;-58
2022/09/06 00:16:03;;;;;;;17.67;4.20;;;;;;;8.27;100.00;99765.34;2225529;79;20972;-57
2022/09/06 00:19:05;;;;;;;16.62;4.53;;;;;;;8.38;100.00;99767.57;2207590;80;21523;-56
2022/09/06 00:22:06;;;;;;;16.23;4.22;;;;;;;8.27;100.00;99774.48;2213613;79;21019;-56
2022/09/06 00:25:08;;;;;;;17.00;4.50;;;;;;;8.15;100.00;99768.79;2222395;79;21027;-57
2022/09/06 00:28:09;;;;;;;17.62;4.40;;;;;;;8.08;100.00;99769.08;2214441;80;21000;-57
2022/09/06 00:31:11;;;;;;;16.12;4.12;;;;;;;8.17;100.00;99770.04;2214146;80;20982;-57
2022/09/06 00:34:12;;;;;;;22.30;4.75;;;;;;;8.35;100.00;99772.45;2220980;80;21077;-57
2022/09/06 00:37:14;;;;;;;16.25;4.12;;;;;;;8.41;100.00;99767.45;2222005;80;21003;-57
2022/09/06 00:40:15;;;;;;;19.00;4.65;;;;;;;8.39;100.00;99770.13;2210939;79;21535;-57
2022/09/06 00:43:17;;;;;;;15.15;4.17;;;;;;;8.52;100.00;99766.64;2227931;80;21039;-57
2022/09/06 00:46:18;;;;;;;15.65;3.90;;;;;;;8.43;100.00;99766.92;2225834;79;21086;-57
2022/09/06 00:49:23;;;;;;;13.30;4.25;;;;;;;8.47;100.00;99769.86;2222157;80;21035;-57
2022/09/06 00:52:23;;;;;;;16.20;3.75;;;;;;;8.32;100.00;99769.95;2210844;79;21036;-55
2022/09/06 00:55:25;;;;;;;17.48;4.35;;;;;;;8.33;100.00;99769.90;2222853;79;21669;-55
2022/09/06 00:58:26;;;;;;;15.30;4.08;;;;;;;8.21;100.00;99766.41;2224563;79;20960;-55
2022/09/06 01:01:28;;;;;;;19.67;4.67;;;;;;;8.21;100.00;99770.33;2228182;79;21562;-54
2022/09/06 01:04:29;;;;;;;17.40;4.30;;;;;;;8.24;100.00;99777.22;2222746;79;20996;-54
2022/09/06 01:07:31;;;;;;;15.50;4.28;;;;;;;8.19;100.00;99774.77;2228319;79;21545;-54
2022/09/06 01:10:34;;;;;;;17.80;4.37;;;;;;;8.05;100.00;99767.88;2215585;79;20999;-55
2022/09/06 01:13:36;;;;;;;16.90;4.42;;;;;;;8.02;100.00;99779.75;2198813;80;21002;-54
2022/09/06 01:16:37;;;;;;;17.35;4.28;;;;;;;8.01;100.00;99776.73;2221236;80;21011;-54
2022/09/06 01:19:39;;;;;;;15.95;3.98;;;;;;;7.96;100.00;99772.98;2221958;80;21836;-54
2022/09/06 01:22:40;;;;;;;17.60;4.15;;;;;;;7.85;100.00;99778.56;2229110;79;20968;-54
2022/09/06 01:25:42;;;;;;;17.85;4.45;;;;;;;7.73;100.00;99771.14;2222497;80;21479;-54
2022/09/06 01:28:43;;;;;;;14.95;4.25;;;;;;;7.61;100.00;99765.45;2220324;79;21082;-54
2022/09/06 01:31:45;;;;;;;16.97;4.53;;;;;;;7.49;100.00;99769.77;2221625;80;21525;-54
2022/09/06 01:34:46;;;;;;;16.32;3.90;;;;;;;7.44;100.00;99762.53;2224039;78;20996;-54
2022/09/06 01:37:48;;;;;;;16.02;4.10;;;;;;;7.45;100.00;99755.11;2222689;79;20999;-54
2022/09/06 01:40:49;;;;;;;17.07;4.30;;;;;;;7.51;100.00;99760.58;2221977;80;20996;-54
2022/09/06 01:43:51;;;;;;;14.18;3.80;;;;;;;7.52;100.00;99756.61;2221243;80;21008;-54
2022/09/06 01:46:52;;;;;;;16.42;4.00;;;;;;;7.46;100.00;99758.97;2229584;79;21494;-54
2022/09/06 01:49:53;;;;;;;16.85;4.25;;;;;;;7.39;100.00;99760.55;2224481;79;21004;-54
2022/09/06 01:52:55;;;;;;;16.42;4.00;;;;;;;7.34;100.00;99752.00;2221010;80;21474;-54
2022/09/06 01:55:56;;;;;;;15.15;4.35;;;;;;;7.28;100.00;99751.75;2222265;80;21004;-54
2022/09/06 01:58:58;;;;;;;16.00;3.90;;;;;;;7.24;100.00;99750.14;2227046;79;21082;-54
2022/09/06 02:01:59;;;;;;;16.75;4.08;;;;;;;7.23;100.00;99751.91;2224415;79;20991;-54
2022/09/06 02:05:00;;;;;;;16.90;4.00;;;;;;;7.18;100.00;99749.88;2225630;80;20977;-54
2022/09/06 02:08:02;;;;;;;15.43;3.92;;;;;;;7.16;100.00;99746.95;2225195;79;21577;-54
2022/09/06 02:11:03;;;;;;;14.18;4.15;;;;;;;7.06;100.00;99750.30;2227732;79;20988;-54
2022/09/06 02:14:05;;;;;;;18.17;4.33;;;;;;;6.90;100.00;99748.63;2225397;79;21553;-54
2022/09/06 02:17:06;;;;;;;14.38;3.90;;;;;;;6.72;100.00;99746.12;2223674;79;21580;-54
2022/09/06 02:20:08;;;;;;;16.40;3.90;;;;;;;6.65;100.00;99749.37;2222376;79;21047;-54
2022/09/06 02:23:09;;;;;;;16.15;4.20;;;;;;;6.51;100.00;99741.96;2221975;80;21007;-54
2022/09/06 02:26:11;;;;;;;17.57;4.65;;;;;;;6.41;100.00;99741.84;2226174;79;20995;-54
2022/09/06 02:29:13;;;;;;;15.80;4.35;;;;;;;6.43;100.00;99743.09;2221653;80;21007;-54
2022/09/06 02:32:14;;;;;;;13.97;3.43;;;;;;;6.45;100.00;99742.16;2223326;79;21015;-55
2022/09/06 02:35:16;;;;;;;17.10;4.10;;;;;;;6.50;100.00;99741.55;2222248;79;21483;-55
2022/09/06 02:38:17;;;;;;;17.85;4.35;;;;;;;6.53;100.00;99738.00;2223084;79;20992;-55
2022/09/06 02:41:21;;;;;;;12.40;3.42;;;;;;;6.51;100.00;99735.91;2223391;79;21529;-55
2022/09/06 02:44:22;;;;;;;12.63;3.40;;;;;;;6.58;100.00;99736.13;2207186;79;21628;-55
2022/09/06 02:47:23;;;;;;;9.03;2.90;;;;;;;6.49;100.00;99738.98;2217138;80;21149;-55
2022/09/06 02:50:25;;;;;;;12.65;3.35;;;;;;;6.34;100.00;99735.94;2222387;79;20984;-56
2022/09/06 02:53:27;;;;;;;15.03;3.95;;;;;;;6.34;100.00;99732.03;2223034;79;21283;-55
2022/09/06 02:56:28;;;;;;;16.30;3.95;;;;;;;6.13;100.00;99735.25;2224565;79;21019;-55
2022/09/06 02:59:30;;;;;;;13.88;4.10;;;;;;;6.00;100.00;99733.44;2222876;79;20987;-56
2022/09/06 03:02:31;;;;;;;15.18;4.10;;;;;;;5.93;100.00;99724.89;2225175;79;21000;-55
2022/09/06 03:05:32;;;;;;;14.10;3.95;;;;;;;6.04;100.00;99726.79;2225263;79;21541;-55
2022/09/06 03:08:35;;;;;;;16.15;3.92;;;;;;;6.07;100.00;99720.64;2224091;79;20964;-55
2022/09/06 03:11:36;;;;;;;14.58;3.80;;;;;;;6.00;100.00;99717.34;2222623;78;20996;-55
2022/09/06 03:14:40;;;;;;;14.53;3.90;;;;;;;6.05;100.00;99717.25;2223196;79;20996;-55
2022/09/06 03:17:41;;;;;;;15.18;4.10;;;;;;;6.15;100.00;99716.08;2227107;79;20996;-55
2022/09/06 03:20:43;;;;;;;15.37;4.70;;;;;;;6.15;100.00;99713.91;2223588;79;21558;-56
2022/09/06 03:23:44;;;;;;;15.88;4.17;;;;;;;6.16;100.00;99715.62;2224135;79;21242;-56
2022/09/06 03:26:46;;;;;;;16.27;4.27;;;;;;;6.17;100.00;99716.88;2222002;79;21003;-56
2022/09/06 03:29:47;;;;;;;12.98;3.45;;;;;;;6.15;100.00;99717.38;2223376;79;21051;-56
2022/09/06 03:32:49;;;;;;;15.80;3.30;;;;;;;6.07;100.00;99716.28;2225901;79;21039;-57
2022/09/06 03:35:50;;;;;;;13.43;3.60;;;;;;;6.04;100.00;99706.41;2222836;79;21246;-57
2022/09/06 03:38:52;;;;;;;11.57;3.27;;;;;;;6.01;100.00;99712.55;2221789;80;20968;-56
2022/09/06 03:41:54;;;;;;;14.55;3.80;;;;;;;5.86;100.00;99711.21;2221301;80;21292;-56
2022/09/06 03:44:56;;;;;;;14.03;3.77;;;;;;;5.72;100.00;99715.48;2227463;79;20999;-56
2022/09/06 03:47:57;;;;;;;14.05;4.00;;;;;;;5.69;100.00;99712.97;2222219;79;21541;-56
2022/09/06 03:50:59;;;;;;;18.17;4.12;;;;;;;5.70;100.00;99707.30;2221920;80;21018;-56
2022/09/06 03:54:00;;;;;;;16.97;3.50;;;;;;;5.77;100.00;99706.70;2217790;79;21522;-56
2022/09/06 03:57:02;;;;;;;17.87;4.20;;;;;;;5.84;100.00;99710.38;2223906;78;21008;-56
2022/09/06 04:00:03;;;;;;;19.37;4.17;;;;;;;5.93;100.00;99723.59;2225828;79;21094;-56
2022/09/06 04:03:08;;;;;;;17.52;4.17;;;;;;;5.85;100.00;99718.61;2232048;79;21109;-56
2022/09/06 04:06:09;;;;;;;16.80;4.25;;;;;;;5.80;100.00;99713.96;2210963;80;20992;-56
2022/09/06 04:09:10;;;;;;;14.73;3.57;;;;;;;5.84;100.00;99714.75;2220155;79;21016;-56
2022/09/06 04:12:12;;;;;;;18.35;3.85;;;;;;;5.76;100.00;99711.06;2217638;80;20959;-57
2022/09/06 04:15:14;;;;;;;17.85;4.08;;;;;;;5.74;100.00;99707.62;2228261;80;21035;-56
2022/09/06 04:18:15;;;;;;;18.07;3.80;;;;;;;5.72;100.00;99707.67;2221973;79;21507;-56
2022/09/06 04:21:17;;;;;;;15.63;3.45;;;;;;;5.72;100.00;99707.67;2211921;80;21378;-56
2022/09/06 04:24:18;;;;;;;17.20;3.70;;;;;;;5.66;100.00;99714.35;2220861;79;20988;-56
2022/09/06 04:27:20;;;;;;;16.27;3.70;;;;;;;5.65;100.00;99707.89;2218582;79;21077;-56
2022/09/06 04:30:21;;;;;;;14.47;3.70;;;;;;;5.69;100.00;99705.61;2222263;79;21000;-56
2022/09/06 04:33:24;;;;;;;16.15;4.30;;;;;;;5.75;100.00;99708.47;2222400;78;21575;-56
2022/09/06 04:36:26;;;;;;;14.05;3.62;;;;;;;5.79;100.00;99709.67;2223130;80;21560;-57
2022/09/06 04:39:28;;;;;;;16.37;4.33;;;;;;;5.92;100.00;99711.92;2225281;79;21015;-56
2022/09/06 04:42:29;;;;;;;14.75;3.65;;;;;;;6.07;100.00;99708.92;2213406;80;21760;-56
2022/09/06 04:45:31;;;;;;;12.93;3.40;;;;;;;6.24;100.00;99711.05;2223536;79;21042;-57
2022/09/06 04:48:33;;;;;;;12.37;3.27;;;;;;;6.28;100.00;99713.10;2222761;79;21286;-56
2022/09/06 04:51:36;;;;;;;12.60;3.35;;;;;;;6.47;100.00;99711.67;2224625;80;20967;-57
2022/09/06 04:54:37;;;;;;;12.28;3.45;;;;;;;6.59;100.00;99710.44;2209788;79;21502;-57
2022/09/06 04:57:39;;;;;;;13.50;3.77;;;;;;;6.68;100.00;99709.30;2228635;80;20972;-57
2022/09/06 05:00:43;;;;;;;16.52;4.03;;;;;;;6.99;100.00;99705.74;2224295;79;21486;-56
2022/09/06 05:03:44;;;;;;;16.62;3.87;;;;;;;7.24;100.00;99710.56;2212436;79;21544;-56
2022/09/06 05:06:47;;;;;;;13.90;3.40;;;;;;;7.41;100.00;99712.61;2212476;79;21032;-57
2022/09/06 05:09:49;;;;;;;19.57;4.27;;;;;;;7.56;100.00;99715.61;2225110;80;21008;-57
2022/09/06 05:12:50;;;;;;;15.38;3.92;;;;;;;7.86;100.00;99711.49;2208775;80;21183;-57
2022/09/06 05:15:52;;;;;;;17.82;4.50;;;;;;;8.22;100.00;99714.55;2223666;79;20992;-57
2022/09/06 05:18:53;;;;;;;15.95;3.77;;;;;;;8.50;100.00;99710.91;2222303;79;21487;-57
2022/09/06 05:21:55;;;;;;;15.58;3.80;;;;;;;8.90;100.00;99701.50;2226667;79;20991;-57
2022/09/06 05:24:56;;;;;;;18.82;4.05;;;;;;;9.01;100.00;99705.85;2223644;79;21507;-57
2022/09/06 05:27:58;;;;;;;19.92;4.20;;;;;;;9.16;100.00;99701.75;2222842;80;21007;-57
2022/09/06 05:30:59;;;;;;;17.17;3.98;;;;;;;9.48;100.00;99707.86;2224709;79;21103;-57
2022/09/06 05:34:01;;;;;;;16.32;3.95;;;;;;;9.73;100.00;99708.98;2226986;79;21543;-57
2022/09/06 05:37:02;;;;;;;15.48;3.80;;;;;;;9.79;100.00;99708.71;2224127;79;20995;-57
2022/09/06 05:40:04;;;;;;;17.07;3.90;;;;;;;10.05;100.00;99708.02;2224963;79;21522;-57
2022/09/06 05:43:05;;;;;;;17.60;4.40;;;;;;;10.40;100.00;99703.83;2224326;80;20987;-58
2022/09/06 05:46:07;;;;;;;14.65;4.10;;;;;;;10.81;100.00;99710.67;2218442;79;21082;-57
2022/09/06 05:49:09;;;;;;;17.15;4.30;;;;;;;11.17;100.00;99705.02;2223817;79;21031;-57
2022/09/06 05:52:11;;;;;;;18.82;4.17;;;;;;;11.46;100.00;99704.03;2224636;80;21506;-58
2022/09/06 05:55:12;;;;;;;17.60;4.08;;;;;;;11.84;100.00;99706.00;2229296;80;20968;-58
2022/09/06 05:58:13;;;;;;;18.77;4.47;;;;;;;12.14;100.00;99710.61;2227837;79;21039;-57
2022/09/06 06:01:15;;;;;;;20.85;4.35;;;;;;;12.39;100.00;99708.80;2224630;80;21078;-57
2022/09/06 06:04:17;;;;;;;19.20;4.40;;;;;;;12.81;100.00;99713.96;2223719;79;21042;-57
2022/09/06 06:07:19;;;;;;;15.28;3.90;;;;;;;12.99;100.00;99712.06;2226614;79;21486;-56
2022/09/06 06:10:20;;;;;;;27.90;5.40;;;;;;;13.41;100.00;99711.02;2227165;80;21003;-56
2022/09/06 06:13:21;;;;;;;19.10;4.20;;;;;;;13.79;100.00;99701.76;2224889;80;21479;-56
2022/09/06 06:16:24;;;;;;;17.27;4.25;;;;;;;14.30;100.00;99704.78;2216172;79;21019;-56
2022/09/06 06:19:25;;;;;;;;;;;;;;;14.56;100.00;99707.56;2228089;80;21479;-57
2022/09/06 06:22:27;;;;;;;14.40;3.77;;;;;;;14.90;100.00;99712.88;2227069;79;20131;-55
2022/09/06 06:25:29;;;;;;;14.28;3.87;;;;;;;15.18;100.00;99709.74;2219811;80;21055;-57
2022/09/06 06:28:31;;;;;;;15.25;3.45;;;;;;;15.46;100.00;99709.70;2228561;79;21066;-56
2022/09/06 06:31:32;;;;;;;13.18;3.15;;;;;;;15.66;100.00;99710.54;2225488;79;21007;-57
2022/09/06 06:34:34;;;;;;;13.72;3.37;;;;;;;15.91;100.00;99708.88;2223548;80;21039;-57
2022/09/06 06:37:35;;;;;;;16.70;3.70;;;;;;;16.31;100.00;99711.87;2225183;80;21024;-56
2022/09/06 06:40:37;;;;;;;11.53;3.13;;;;;;;16.59;100.00;99713.38;2225977;79;21069;-57
2022/09/06 06:43:38;;;;;;;14.70;3.20;;;;;;;16.77;100.00;99715.19;2224494;79;20995;-57
2022/09/06 06:46:40;;;;;;;15.00;3.10;;;;;;;17.00;100.00;99718.83;2225921;80;22267;-57
2022/09/06 06:49:42;;;;;;;14.47;3.10;;;;;;;17.17;100.00;99701.69;2222213;79;20980;-58
2022/09/06 06:52:43;;;;;;;14.30;3.00;;;;;;;17.42;100.00;99706.46;2214442;80;21466;-58
2022/09/06 06:55:45;;;;;;;15.13;2.87;;;;;;;17.48;100.00;99711.30;2225803;78;21011;-58
2022/09/06 06:58:47;;;;;;;11.08;2.92;;;;;;;17.82;96.88;99706.91;2223107;80;21034;-58
2022/09/06 07:01:49;;;;;;;10.88;2.72;;;;;;;17.82;96.88;99706.91;2208097;79;20999;-58
2022/09/06 07:04:51;;;;;;;11.97;2.90;;;;;;;18.07;97.78;99718.78;2229282;79;20995;-58
2022/09/06 07:07:52;;;;;;;11.38;2.90;;;;;;;18.32;95.39;99714.56;2227866;78;21063;-58
2022/09/06 07:10:54;;;;;;;12.40;2.35;;;;;;;18.39;91.92;99718.92;2214263;79;21494;-57
2022/09/06 07:13:55;;;;;;;9.45;2.70;;;;;;;18.57;89.46;99715.75;2222241;79;20994;-59
2022/09/06 07:16:58;;;;;;;14.83;3.00;;;;;;;18.63;86.91;99711.27;2225610;79;21474;-58
2022/09/06 07:19:59;;;;;;;10.72;2.45;;;;;;;18.82;89.21;99707.95;2223114;78;21048;-58
2022/09/06 07:23:01;;;;;;;11.18;2.15;;;;;;;19.08;86.30;99711.19;2224131;79;21436;-58
2022/09/06 07:26:03;;;;;;;10.85;2.72;;;;;;;19.38;85.39;99712.27;2222024;80;21028;-58
2022/09/06 07:29:04;;;;;;;10.30;2.45;;;;;;;19.72;83.78;99718.25;2226144;79;20984;-58
2022/09/06 07:32:06;;;;;;;13.72;2.60;;;;;;;19.96;82.94;99714.97;2217085;79;20992;-58
2022/09/06 07:35:07;;;;;;;11.50;2.67;;;;;;;20.05;76.68;99719.48;2226819;79;21577;-58
2022/09/06 07:38:09;;;;;;;9.08;2.40;;;;;;;20.08;76.06;99721.41;2226578;79;20972;-57
2022/09/06 07:41:11;;;;;;;7.53;2.22;;;;;;;20.05;75.15;99721.66;2219342;80;20988;-58
2022/09/06 07:44:12;;;;;;;10.53;2.50;;;;;;;20.10;71.50;99717.75;2223459;80;21031;-58
2022/09/06 07:47:16;;;;;;;12.25;2.60;;;;;;;20.07;70.44;99719.72;2226391;79;21059;-58
2022/09/06 07:50:17;;;;;;;10.85;2.45;;;;;;;20.22;72.76;99724.19;2211519;79;21089;-59
2022/09/06 07:53:18;;;;;;;12.20;2.83;;;;;;;20.47;72.25;99731.35;2221216;79;21047;-58
2022/09/06 07:56:21;;;;;;;14.95;3.58;;;;;;;20.69;69.89;99725.02;2223984;79;21012;-58
2022/09/06 07:59:23;;;;;;;11.65;2.80;;;;;;;20.82;69.39;99726.59;2222593;80;21035;-58
2022/09/06 08:02:24;;;;;;;9.15;2.22;;;;;;;21.05;66.57;99728.02;2221805;79;21012;-59
2022/09/06 08:05:25;;;;;;;13.72;2.27;;;;;;;21.21;65.96;99722.12;2224414;80;20964;-59
2022/09/06 08:08:27;;;;;;;13.20;2.42;;;;;;;21.30;63.54;99717.77;2226236;78;21026;-59
2022/09/06 08:11:29;;;;;;;10.03;2.40;;;;;;;21.29;63.14;99723.61;2217800;80;21035;-58
2022/09/06 08:14:30;;;;;;;11.03;2.50;;;;;;;21.49;62.35;99720.07;2222018;79;20991;-57
2022/09/06 08:17:34;;;;;;;;;;;;;;;21.68;61.25;99714.75;2229910;80;21506;-59
2022/09/06 08:20:35;;;;;;;10.58;2.00;;;;;;;21.81;58.76;99707.77;2195943;79;20136;-58
2022/09/06 08:23:37;;;;;;;8.15;1.77;;;;;;;21.98;55.33;99712.34;2225771;79;21089;-57
2022/09/06 08:26:41;;;;;;;9.55;2.17;;;;;;;22.11;59.31;99701.81;2222405;80;21018;-57
2022/09/06 08:29:42;;;;;;;7.25;1.70;;;;;;;22.19;56.58;99698.42;2211596;80;21482;-57
2022/09/06 08:32:44;;;;;;;4.83;1.67;;;;;;;22.17;57.35;99701.72;2228405;79;20992;-57
2022/09/06 08:35:45;;;;;;;6.83;1.87;;;;;;;22.09;54.64;99695.28;2229372;79;21471;-57
2022/09/06 08:38:47;;;;;;;6.10;1.87;;;;;;;22.21;55.47;99687.08;2225729;79;21038;-57
2022/09/06 08:41:49;;;;;;;8.40;2.08;;;;;;;22.40;53.75;99688.87;2224558;79;21023;-57
2022/09/06 08:44:51;;;;;;;7.03;1.70;;;;;;;22.46;55.39;99688.27;2224607;79;21007;-59
2022/09/06 08:47:53;;;;;;;5.60;1.87;;;;;;;22.48;44.51;99676.44;2219989;78;21703;-59
2022/09/06 08:50:54;;;;;;;9.30;2.00;;;;;;;22.33;49.36;99685.95;2225795;79;21070;-58
2022/09/06 08:53:56;;;;;;;8.58;1.70;;;;;;;22.60;53.41;99685.59;2223914;79;21106;-58
2022/09/06 08:56:57;;;;;;;10.03;2.10;;;;;;;22.88;51.83;99680.19;2220907;79;20979;-59
2022/09/06 08:59:58;;;;;;;8.10;1.60;;;;;;;22.99;51.62;99679.96;2225044;80;21015;-59
2022/09/06 09:03:00;;;;;;;5.47;1.35;;;;;;;23.15;51.29;99684.14;2225076;79;21030;-59
2022/09/06 09:06:04;;;;;;;6.60;1.67;;;;;;;22.98;43.54;99676.42;2221905;79;20996;-59
2022/09/06 09:09:05;;;;;;;7.03;1.50;;;;;;;22.88;47.69;99677.00;2211893;79;20995;-59
2022/09/06 09:12:06;;;;;;;8.60;1.85;;;;;;;22.75;46.51;99681.90;2224635;79;21035;-59
2022/09/06 09:15:08;;;;;;;7.55;1.90;;;;;;;22.80;42.66;99671.09;2223716;79;20968;-58
2022/09/06 09:18:10;;;;;;;;;;;;;;;22.65;45.93;99677.95;2226496;79;21039;-58
2022/09/06 09:21:11;;;;;;;6.42;1.82;;;;;;;22.71;47.19;99678.67;2221283;79;20203;-58
2022/09/06 09:24:13;;;;;;;4.17;1.65;;;;;;;22.93;45.68;99681.41;2226734;80;21008;-58
2022/09/06 09:27:15;;;;;;;7.33;1.87;;;;;;;22.98;46.92;99672.41;2221086;80;20992;-59
2022/09/06 09:30:16;;;;;;;8.40;1.82;;;;;;;22.78;42.44;99663.70;2223733;78;21001;-58
2022/09/06 09:33:17;;;;;;;6.15;1.80;;;;;;;22.64;44.95;99666.42;2226245;79;21074;-58
2022/09/06 09:36:19;;;;;;;6.97;1.60;;;;;;;22.94;44.24;99655.02;2223128;79;21593;-58
2022/09/06 09:39:21;;;;;;;9.53;1.37;;;;;;;22.94;44.24;99655.02;2213426;79;21014;-58
2022/09/06 09:42:23;;;;;;;5.10;1.80;;;;;;;23.04;40.19;99651.41;2205751;79;20992;-58
2022/09/06 09:45:24;;;;;;;10.58;2.70;;;;;;;23.01;41.79;99644.05;2224475;79;20996;-58
2022/09/06 09:48:26;;;;;;;11.40;1.50;;;;;;;22.94;41.90;99640.31;2220330;80;21011;-57
2022/09/06 09:51:27;;;;;;;11.35;1.90;;;;;;;22.79;44.41;99646.67;2224102;79;21065;-57
2022/09/06 09:54:29;;;;;;;6.08;1.57;;;;;;;23.18;45.95;99637.51;2226215;79;21047;-59
2022/09/06 09:57:30;;;;;;;8.33;1.57;;;;;;;23.49;44.00;99636.56;2226426;79;21542;-59
2022/09/06 10:00:32;;;;;;;7.28;1.90;;;;;;;23.38;41.98;99627.96;2223706;79;20992;-58
2022/09/06 10:03:33;;;;;;;7.35;1.47;;;;;;;23.45;41.66;99616.97;2222404;79;20998;-59
2022/09/06 10:06:35;;;;;;;4.72;1.50;;;;;;;23.64;43.35;99621.26;2211263;79;20999;-59
2022/09/06 10:09:37;;;;;;;4.85;1.60;;;;;;;23.82;42.80;99612.66;2223682;79;21015;-59
2022/09/06 10:12:38;;;;;;;;;;;;;;;24.06;44.06;99615.12;2226378;79;20973;-59
2022/09/06 10:15:40;;;;;;;8.95;1.82;;;;;;;24.26;43.93;99602.28;2222349;80;20398;-57
2022/09/06 10:18:42;;;;;;;7.75;1.85;;;;;;;24.19;40.00;99601.27;2216842;79;21063;-58
2022/09/06 10:21:44;;;;;;;7.20;1.35;;;;;;;24.11;41.53;99598.58;2207955;80;21490;-57
2022/09/06 10:24:45;;;;;;;8.70;1.82;;;;;;;24.17;42.11;99592.56;2220305;79;20985;-57
2022/09/06 10:27:46;;;;;;;13.40;1.82;;;;;;;24.23;37.49;99585.20;2223625;79;21078;-58
2022/09/06 10:30:48;;;;;;;8.48;1.80;;;;;;;24.14;37.88;99588.87;2221848;80;20995;-59
2022/09/06 10:33:50;;;;;;;5.15;1.40;;;;;;;24.12;37.98;99598.89;2225740;79;21075;-59
2022/09/06 10:36:51;;;;;;;13.48;1.70;;;;;;;23.93;36.40;99573.22;2227422;79;20992;-57
2022/09/06 10:39:53;;;;;;;4.28;1.47;;;;;;;23.58;38.18;99591.11;2223644;79;20996;-58
2022/09/06 10:42:55;;;;;;;5.45;1.45;;;;;;;23.65;39.19;99588.14;2220766;80;20992;-59
2022/09/06 10:45:56;;;;;;;7.28;1.65;;;;;;;23.69;38.74;99589.47;2222176;79;21008;-58
2022/09/06 10:48:58;;;;;;;4.28;1.47;;;;;;;23.82;36.79;99587.69;2226175;78;21027;-59
2022/09/06 10:52:00;;;;;;;8.35;1.52;;;;;;;23.79;37.95;99588.02;2223312;79;21035;-58
2022/09/06 10:55:03;;;;;;;10.95;1.50;;;;;;;24.17;39.06;99586.69;2228892;80;21072;-57
2022/09/06 10:58:05;;;;;;;6.05;1.40;;;;;;;24.46;38.91;99578.71;2224582;79;21007;-59
2022/09/06 11:01:07;;;;;;;11.12;2.25;;;;;;;24.62;35.05;99571.73;2226376;78;20995;-59
2022/09/06 11:04:09;;;;;;;9.43;1.80;;;;;;;24.49;37.98;99579.72;2228187;80;21047;-59
2022/09/06 11:07:10;;;;;;;8.05;1.77;;;;;;;24.55;37.53;99580.90;2221063;80;21056;-59
2022/09/06 11:10:11;;;;;;;7.08;1.37;;;;;;;24.54;37.56;99576.56;2222328;79;21040;-59
2022/09/06 11:13:13;;;;;;;9.30;1.92;;;;;;;24.60;37.50;99573.75;2222990;78;20996;-59
2022/09/06 11:16:15;;;;;;;;;;;;;;;24.66;37.74;99570.39;2225832;79;21554;-59
2022/09/06 11:19:16;;;;;;;7.70;1.70;;;;;;;24.77;34.16;99567.87;2225331;79;20139;-58
2022/09/06 11:22:18;;;;;;;;;;;;;;;24.84;37.20;99567.05;2226243;78;20968;-58
2022/09/06 11:25:20;;;;;;;7.92;1.65;;;;;;;25.03;38.08;99563.17;2222845;79;20100;-58
2022/09/06 11:28:21;;;;;;;6.83;1.52;;;;;;;25.17;36.96;99563.48;2221385;80;20960;-58
2022/09/06 11:31:23;;;;;;;;;;;;;;;25.02;34.76;99552.61;2226385;79;21015;-59
2022/09/06 11:34:25;;;;;;;5.58;1.50;;;;;;;25.13;36.60;99557.63;2227858;79;20104;-59
2022/09/06 11:37:26;;;;;;;9.80;2.00;;;;;;;25.21;36.53;99556.77;2216730;79;20976;-58
2022/09/06 11:40:27;;;;;;;7.12;2.05;;;;;;;25.35;36.40;99551.25;2221970;79;21060;-59
2022/09/06 11:43:29;;;;;;;6.85;1.42;;;;;;;25.51;35.66;99547.16;2222877;80;21062;-59
2022/09/06 11:46:31;;;;;;;5.22;1.37;;;;;;;25.35;35.32;99546.70;2216212;79;21652;-59
2022/09/06 11:49:33;;;;;;;7.83;1.65;;;;;;;25.45;35.37;99545.17;2224725;78;21122;-59
2022/09/06 11:52:35;;;;;;;6.58;1.40;;;;;;;25.66;36.33;99541.06;2222812;78;21110;-58
2022/09/06 11:55:36;;;;;;;5.97;1.42;;;;;;;25.87;33.11;99529.73;2221548;80;21007;-59
2022/09/06 11:58:38;;;;;;;5.83;1.72;;;;;;;26.11;36.19;99532.82;2221150;80;21012;-59
2022/09/06 12:01:39;;;;;;;5.03;1.90;;;;;;;26.14;35.46;99532.47;2223321;79;20995;-59
2022/09/06 12:04:41;;;;;;;6.85;1.42;;;;;;;26.22;34.96;99536.94;2225528;79;21478;-57
2022/09/06 12:07:42;;;;;;;11.40;1.85;;;;;;;26.39;35.37;99526.43;2224225;78;20998;-59
2022/09/06 12:10:44;;;;;;;7.30;1.80;;;;;;;26.56;34.19;99533.84;2223980;78;21573;-59
2022/09/06 12:13:45;;;;;;;5.45;1.60;;;;;;;26.15;32.82;99531.95;2215096;79;20967;-58
2022/09/06 12:16:47;;;;;;;8.13;2.08;;;;;;;26.15;35.17;99533.29;2214625;80;21502;-57
2022/09/06 12:19:50;;;;;;;7.55;1.40;;;;;;;26.22;32.29;99522.16;2224797;80;20995;-58
2022/09/06 12:22:52;;;;;;;8.65;1.72;;;;;;;26.30;33.98;99528.00;2223189;79;20995;-57
2022/09/06 12:25:53;;;;;;;;;;;;;;;26.38;34.34;99519.89;2223587;80;21011;-57
2022/09/06 12:28:55;;;;;;;9.98;2.05;;;;;;;26.37;33.75;99520.37;2223632;79;20097;-57
2022/09/06 12:31:57;;;;;;;7.85;1.47;;;;;;;26.10;33.85;99521.25;2222433;79;21062;-57
2022/09/06 12:34:58;;;;;;;5.75;1.45;;;;;;;26.24;33.23;99525.52;2223826;78;21039;-59
2022/09/06 12:37:59;;;;;;;6.72;2.05;;;;;;;26.27;34.11;99528.67;2222423;79;21003;-59
2022/09/06 12:41:02;;;;;;;9.73;1.67;;;;;;;26.19;34.40;99518.48;2225770;78;21494;-59
2022/09/06 12:44:04;;;;;;;8.53;1.60;;;;;;;26.38;34.66;99514.52;2222837;80;20968;-59
2022/09/06 12:47:05;;;;;;;5.25;1.45;;;;;;;26.53;34.21;99508.66;2221874;80;20987;-59
2022/09/06 12:50:07;;;;;;;6.12;1.98;;;;;;;26.73;34.40;99507.67;2224414;79;21030;-59
2022/09/06 12:53:08;;;;;;;7.92;1.92;;;;;;;26.67;32.20;99499.48;2229241;78;21031;-59
2022/09/06 12:56:11;;;;;;;8.30;1.92;;;;;;;26.26;33.86;99506.86;2224238;79;20995;-59
2022/09/06 12:59:13;;;;;;;8.60;1.98;;;;;;;26.48;34.69;99501.66;2221545;79;20961;-59
2022/09/06 13:02:14;;;;;;;7.45;1.67;;;;;;;26.76;34.10;99502.45;2222083;80;21046;-60
2022/09/06 13:05:16;;;;;;;7.50;1.80;;;;;;;26.76;33.12;99502.45;2219735;80;21014;-59
2022/09/06 13:08:17;;;;;;;9.75;2.08;;;;;;;26.69;33.88;99502.33;2220656;80;21076;-58
2022/09/06 13:11:19;;;;;;;8.35;1.72;;;;;;;26.78;33.97;99501.77;2223819;79;21082;-57
2022/09/06 13:14:21;;;;;;;13.98;1.90;;;;;;;26.87;33.54;99495.80;2226017;79;21074;-57
2022/09/06 13:17:23;;;;;;;10.95;1.80;;;;;;;27.02;33.07;99489.08;2220873;78;21494;-58
2022/09/06 13:20:24;;;;;;;6.03;1.60;;;;;;;26.97;32.08;99483.73;2213271;79;21040;-59
2022/09/06 13:23:26;;;;;;;4.97;1.98;;;;;;;26.74;32.29;99483.80;2224592;79;21467;-57
2022/09/06 13:26:27;;;;;;;;;;;;;;;26.80;33.20;99485.75;2229988;79;20992;-57
2022/09/06 13:29:29;;;;;;;11.20;2.33;;;;;;;26.75;33.51;99491.34;2222090;79;20410;-57
2022/09/06 13:32:31;;;;;;;7.80;1.82;;;;;;;26.85;33.35;99490.60;2225128;78;21066;-57
2022/09/06 13:35:33;;;;;;;10.70;1.92;;;;;;;26.58;32.23;99487.44;2226102;79;21016;-57
2022/09/06 13:38:35;;;;;;;;;;;;;;;26.44;33.08;99479.64;2231630;80;21042;-58
2022/09/06 13:41:37;;;;;;;;;;;;;;;26.63;32.34;99485.02;2226998;79;20128;-57
2022/09/06 13:44:38;;;;;;;10.95;1.80;;;;;;;26.39;31.44;99475.34;2225557;80;20202;-57
2022/09/06 13:47:40;;;;;;;12.20;2.15;;;;;;;25.74;32.21;99477.91;2222054;80;21003;-57
2022/09/06 13:50:41;;;;;;;7.50;2.33;;;;;;;25.38;31.63;99473.86;2226560;79;21008;-57
2022/09/06 13:53:43;;;;;;;7.62;2.12;;;;;;;25.48;33.12;99472.32;2222196;79;21011;-57
2022/09/06 13:56:44;;;;;;;8.33;1.87;;;;;;;25.47;33.39;99455.87;2227962;78;21430;-57
2022/09/06 13:59:46;;;;;;;6.37;1.90;;;;;;;25.29;33.58;99459.30;2223487;79;21082;-57
2022/09/06 14:02:47;;;;;;;7.58;1.55;;;;;;;25.16;34.07;99457.16;2223209;79;21537;-57
2022/09/06 14:05:49;;;;;;;11.50;2.15;;;;;;;24.82;32.74;99449.67;2224194;79;20968;-57
2022/09/06 14:08:50;;;;;;;4.42;1.62;;;;;;;24.44;34.88;99456.07;2225857;79;20999;-57